East Line, New York
Current Conditions -  °F | °C
As of 10:51 PM on Thursday 20 Nov 2014 (Local Time) from KALB Reporting Station
Few Clouds Few Clouds  
Wind Chill: 23°   Ceiling: Unl
Heat Index: 23°   Visibility: 10mi
Dew Point: 15°   Wind: 0mph
Humidity: 72%   Direction: NA
Pressure: 29.95"   Gusts: NA
Location:  43.002°N, 73.8759°W
Report Text: KALB 210351Z 00000KT 10SM FEW070 M05/M09 A2995 RMK AO2 SLP145 T10501094
Loading
Personal Weather Stations






























Interactive Weather Map New forecast layout! Learn more

10-Day Weather Forecast

Advertisements
Track Severe Weather on mobile